sensor_id;sensor_type;location;lat;lon;timestamp;P1;durP1;ratioP1;P2;durP2;ratioP2
76953;SDS011;65893;51.698;-0.292;2023-05-14T00:49:16;17.85;;;9.40;;
76953;SDS011;65893;51.698;-0.292;2023-05-14T01:08:17;27.02;;;13.40;;
76953;SDS011;65893;51.698;-0.292;2023-05-14T01:13:58;26.23;;;13.43;;
76953;SDS011;65893;51.698;-0.292;2023-05-14T01:19:16;32.55;;;13.10;;
76953;SDS011;65893;51.698;-0.292;2023-05-14T01:21:52;27.58;;;13.30;;
76953;SDS011;65893;51.698;-0.292;2023-05-14T01:24:22;15.00;;;6.38;;
76953;SDS011;65893;51.698;-0.292;2023-05-14T01:26:51;21.45;;;10.93;;
76953;SDS011;65893;51.698;-0.292;2023-05-14T01:29:39;24.10;;;12.75;;
76953;SDS011;65893;51.698;-0.292;2023-05-14T01:32:15;28.63;;;14.10;;
76953;SDS011;65893;51.698;-0.292;2023-05-14T01:37:26;29.45;;;12.50;;
76953;SDS011;65893;51.698;-0.292;2023-05-14T03:22:10;26.98;;;13.00;;
76953;SDS011;65893;51.698;-0.292;2023-05-14T03:24:55;27.85;;;14.00;;
76953;SDS011;65893;51.698;-0.292;2023-05-14T04:11:47;25.73;;;12.15;;
76953;SDS011;65893;51.698;-0.292;2023-05-14T09:20:22;18.83;;;8.73;;
76953;SDS011;65893;51.698;-0.292;2023-05-14T09:22:52;26.55;;;12.52;;
76953;SDS011;65893;51.698;-0.292;2023-05-14T09:25:19;22.15;;;9.93;;
76953;SDS011;65893;51.698;-0.292;2023-05-14T09:27:51;21.98;;;11.38;;
76953;SDS011;65893;51.698;-0.292;2023-05-14T09:30:19;24.65;;;11.48;;
76953;SDS011;65893;51.698;-0.292;2023-05-14T09:32:45;26.10;;;12.98;;
76953;SDS011;65893;51.698;-0.292;2023-05-14T09:35:21;18.67;;;10.30;;
76953;SDS011;65893;51.698;-0.292;2023-05-14T09:37:50;23.55;;;11.88;;
76953;SDS011;65893;51.698;-0.292;2023-05-14T09:40:17;26.25;;;13.02;;
76953;SDS011;65893;51.698;-0.292;2023-05-14T09:42:53;22.25;;;12.05;;
76953;SDS011;65893;51.698;-0.292;2023-05-14T09:45:22;23.70;;;11.98;;
76953;SDS011;65893;51.698;-0.292;2023-05-14T09:55:59;19.75;;;10.82;;
76953;SDS011;65893;51.698;-0.292;2023-05-14T09:58:26;21.40;;;10.93;;
76953;SDS011;65893;51.698;-0.292;2023-05-14T10:00:55;16.23;;;7.07;;
76953;SDS011;65893;51.698;-0.292;2023-05-14T10:03:28;11.15;;;5.38;;
76953;SDS011;65893;51.698;-0.292;2023-05-14T10:06:05;22.17;;;11.43;;
76953;SDS011;65893;51.698;-0.292;2023-05-14T10:51:19;17.38;;;9.38;;
76953;SDS011;65893;51.698;-0.292;2023-05-14T10:57:05;17.65;;;9.57;;
76953;SDS011;65893;51.698;-0.292;2023-05-14T11:05:23;12.43;;;6.40;;
76953;SDS011;65893;51.698;-0.292;2023-05-14T11:29:53;18.73;;;10.90;;
76953;SDS011;65893;51.698;-0.292;2023-05-14T11:32:29;19.83;;;11.18;;
76953;SDS011;65893;51.698;-0.292;2023-05-14T11:35:01;17.52;;;9.48;;
76953;SDS011;65893;51.698;-0.292;2023-05-14T11:37:36;18.27;;;10.07;;
76953;SDS011;65893;51.698;-0.292;2023-05-14T11:40:08;18.67;;;11.18;;
76953;SDS011;65893;51.698;-0.292;2023-05-14T11:42:55;20.05;;;10.25;;
76953;SDS011;65893;51.698;-0.292;2023-05-14T11:45:28;18.65;;;11.27;;
76953;SDS011;65893;51.698;-0.292;2023-05-14T11:47:56;17.63;;;10.98;;
76953;SDS011;65893;51.698;-0.292;2023-05-14T11:50:25;18.88;;;11.32;;
76953;SDS011;65893;51.698;-0.292;2023-05-14T11:53:07;19.55;;;10.13;;
76953;SDS011;65893;51.698;-0.292;2023-05-14T11:55:36;19.30;;;10.73;;
76953;SDS011;65893;51.698;-0.292;2023-05-14T12:00:55;21.63;;;11.27;;
76953;SDS011;65893;51.698;-0.292;2023-05-14T12:03:23;17.67;;;9.30;;
76953;SDS011;65893;51.698;-0.292;2023-05-14T12:05:56;19.90;;;11.02;;
76953;SDS011;65893;51.698;-0.292;2023-05-14T12:08:29;18.70;;;10.48;;
76953;SDS011;65893;51.698;-0.292;2023-05-14T12:13:35;19.38;;;12.20;;
76953;SDS011;65893;51.698;-0.292;2023-05-14T12:16:07;20.15;;;12.23;;
76953;SDS011;65893;51.698;-0.292;2023-05-14T12:18:35;18.48;;;9.88;;
76953;SDS011;65893;51.698;-0.292;2023-05-14T12:24:14;10.95;;;4.82;;
76953;SDS011;65893;51.698;-0.292;2023-05-14T12:27:02;17.77;;;9.32;;
76953;SDS011;65893;51.698;-0.292;2023-05-14T12:29:38;20.08;;;10.80;;
76953;SDS011;65893;51.698;-0.292;2023-05-14T12:32:08;16.40;;;9.52;;
76953;SDS011;65893;51.698;-0.292;2023-05-14T12:37:04;12.32;;;6.85;;
76953;SDS011;65893;51.698;-0.292;2023-05-14T12:39:39;20.13;;;10.18;;
76953;SDS011;65893;51.698;-0.292;2023-05-14T12:42:08;16.77;;;9.35;;
76953;SDS011;65893;51.698;-0.292;2023-05-14T13:00:29;16.42;;;8.50;;
76953;SDS011;65893;51.698;-0.292;2023-05-14T13:35:24;16.23;;;8.60;;
76953;SDS011;65893;51.698;-0.292;2023-05-14T13:37:54;15.40;;;7.30;;
76953;SDS011;65893;51.698;-0.292;2023-05-14T13:40:40;10.85;;;5.55;;
76953;SDS011;65893;51.698;-0.292;2023-05-14T13:43:16;15.65;;;7.90;;
76953;SDS011;65893;51.698;-0.292;2023-05-14T13:45:42;12.65;;;7.10;;
76953;SDS011;65893;51.698;-0.292;2023-05-14T13:48:08;12.30;;;5.38;;
76953;SDS011;65893;51.698;-0.292;2023-05-14T13:50:34;12.20;;;6.55;;
76953;SDS011;65893;51.698;-0.292;2023-05-14T13:53:03;12.65;;;6.68;;
76953;SDS011;65893;51.698;-0.292;2023-05-14T13:55:30;14.80;;;6.47;;
76953;SDS011;65893;51.698;-0.292;2023-05-14T13:57:57;11.93;;;4.40;;
76953;SDS011;65893;51.698;-0.292;2023-05-14T14:00:25;14.63;;;7.32;;
76953;SDS011;65893;51.698;-0.292;2023-05-14T14:02:53;12.73;;;6.82;;
76953;SDS011;65893;51.698;-0.292;2023-05-14T14:08:00;12.13;;;6.60;;
76953;SDS011;65893;51.698;-0.292;2023-05-14T14:10:27;16.30;;;7.78;;
76953;SDS011;65893;51.698;-0.292;2023-05-14T14:12:57;11.80;;;5.75;;
76953;SDS011;65893;51.698;-0.292;2023-05-14T14:15:38;14.15;;;7.15;;
76953;SDS011;65893;51.698;-0.292;2023-05-14T14:18:12;13.93;;;7.22;;
76953;SDS011;65893;51.698;-0.292;2023-05-14T14:20:44;11.85;;;6.53;;
76953;SDS011;65893;51.698;-0.292;2023-05-14T14:23:12;11.00;;;6.18;;
76953;SDS011;65893;51.698;-0.292;2023-05-14T14:25:42;11.93;;;6.85;;
76953;SDS011;65893;51.698;-0.292;2023-05-14T14:28:21;13.45;;;6.97;;
76953;SDS011;65893;51.698;-0.292;2023-05-14T14:30:50;12.30;;;6.20;;
76953;SDS011;65893;51.698;-0.292;2023-05-14T14:33:20;10.25;;;4.85;;
76953;SDS011;65893;51.698;-0.292;2023-05-14T14:35:46;9.90;;;4.28;;
76953;SDS011;65893;51.698;-0.292;2023-05-14T14:38:16;10.65;;;4.47;;
76953;SDS011;65893;51.698;-0.292;2023-05-14T14:40:50;9.90;;;4.00;;
76953;SDS011;65893;51.698;-0.292;2023-05-14T14:43:19;7.07;;;3.58;;
76953;SDS011;65893;51.698;-0.292;2023-05-14T14:45:46;7.50;;;3.70;;
76953;SDS011;65893;51.698;-0.292;2023-05-14T14:53:29;7.63;;;3.53;;
76953;SDS011;65893;51.698;-0.292;2023-05-14T14:55:55;7.00;;;3.80;;
76953;SDS011;65893;51.698;-0.292;2023-05-14T14:58:22;8.13;;;3.38;;
76953;SDS011;65893;51.698;-0.292;2023-05-14T15:00:49;9.55;;;3.42;;
76953;SDS011;65893;51.698;-0.292;2023-05-14T15:03:16;6.47;;;3.30;;
76953;SDS011;65893;51.698;-0.292;2023-05-14T15:05:43;6.90;;;3.25;;
76953;SDS011;65893;51.698;-0.292;2023-05-14T15:08:09;7.82;;;3.33;;
76953;SDS011;65893;51.698;-0.292;2023-05-14T15:10:38;6.40;;;3.15;;
76953;SDS011;65893;51.698;-0.292;2023-05-14T15:13:05;7.93;;;3.45;;
76953;SDS011;65893;51.698;-0.292;2023-05-14T15:15:34;8.95;;;3.47;;
76953;SDS011;65893;51.698;-0.292;2023-05-14T15:18:01;6.07;;;3.25;;
76953;SDS011;65893;51.698;-0.292;2023-05-14T15:20:28;8.77;;;3.40;;
76953;SDS011;65893;51.698;-0.292;2023-05-14T15:22:54;6.97;;;3.70;;
76953;SDS011;65893;51.698;-0.292;2023-05-14T15:25:21;6.55;;;3.15;;
76953;SDS011;65893;51.698;-0.292;2023-05-14T15:30:19;8.05;;;3.25;;
76953;SDS011;65893;51.698;-0.292;2023-05-14T15:32:45;6.18;;;2.95;;
76953;SDS011;65893;51.698;-0.292;2023-05-14T15:35:11;7.75;;;4.00;;
76953;SDS011;65893;51.698;-0.292;2023-05-14T15:37:38;7.43;;;3.65;;
76953;SDS011;65893;51.698;-0.292;2023-05-14T15:40:05;7.88;;;3.15;;
76953;SDS011;65893;51.698;-0.292;2023-05-14T15:42:49;8.43;;;3.47;;
76953;SDS011;65893;51.698;-0.292;2023-05-14T15:45:16;8.50;;;4.35;;
76953;SDS011;65893;51.698;-0.292;2023-05-14T15:47:42;7.85;;;3.95;;
76953;SDS011;65893;51.698;-0.292;2023-05-14T15:50:09;9.52;;;4.28;;
76953;SDS011;65893;51.698;-0.292;2023-05-14T15:52:35;8.45;;;3.72;;
76953;SDS011;65893;51.698;-0.292;2023-05-14T15:55:04;9.48;;;4.03;;
76953;SDS011;65893;51.698;-0.292;2023-05-14T15:57:32;7.43;;;3.70;;
76953;SDS011;65893;51.698;-0.292;2023-05-14T15:59:58;7.70;;;4.40;;
76953;SDS011;65893;51.698;-0.292;2023-05-14T16:05:07;8.45;;;3.70;;
76953;SDS011;65893;51.698;-0.292;2023-05-14T16:07:37;6.18;;;3.13;;
76953;SDS011;65893;51.698;-0.292;2023-05-14T16:10:03;7.28;;;2.92;;
76953;SDS011;65893;51.698;-0.292;2023-05-14T16:12:29;6.63;;;3.45;;
76953;SDS011;65893;51.698;-0.292;2023-05-14T16:14:56;6.28;;;2.95;;
76953;SDS011;65893;51.698;-0.292;2023-05-14T16:17:22;5.10;;;2.22;;
76953;SDS011;65893;51.698;-0.292;2023-05-14T16:19:48;5.03;;;2.33;;
76953;SDS011;65893;51.698;-0.292;2023-05-14T16:22:16;5.55;;;2.60;;
76953;SDS011;65893;51.698;-0.292;2023-05-14T16:24:41;5.03;;;2.22;;
76953;SDS011;65893;51.698;-0.292;2023-05-14T16:27:08;5.63;;;2.97;;
76953;SDS011;65893;51.698;-0.292;2023-05-14T16:29:38;6.70;;;3.13;;
76953;SDS011;65893;51.698;-0.292;2023-05-14T16:32:04;7.72;;;3.05;;
76953;SDS011;65893;51.698;-0.292;2023-05-14T16:34:30;8.05;;;2.90;;
76953;SDS011;65893;51.698;-0.292;2023-05-14T16:36:57;5.63;;;2.70;;
76953;SDS011;65893;51.698;-0.292;2023-05-14T16:39:23;7.53;;;2.85;;
76953;SDS011;65893;51.698;-0.292;2023-05-14T16:41:50;7.28;;;2.83;;
76953;SDS011;65893;51.698;-0.292;2023-05-14T16:44:18;5.30;;;2.83;;
76953;SDS011;65893;51.698;-0.292;2023-05-14T16:46:44;7.28;;;3.72;;
76953;SDS011;65893;51.698;-0.292;2023-05-14T16:49:10;6.65;;;3.15;;
76953;SDS011;65893;51.698;-0.292;2023-05-14T16:51:38;7.95;;;3.25;;
76953;SDS011;65893;51.698;-0.292;2023-05-14T16:54:07;6.32;;;3.33;;
76953;SDS011;65893;51.698;-0.292;2023-05-14T16:56:55;7.20;;;2.80;;
76953;SDS011;65893;51.698;-0.292;2023-05-14T17:15:19;10.82;;;3.97;;
76953;SDS011;65893;51.698;-0.292;2023-05-14T17:20:30;8.38;;;3.00;;
76953;SDS011;65893;51.698;-0.292;2023-05-14T17:29:08;5.88;;;2.67;;
76953;SDS011;65893;51.698;-0.292;2023-05-14T17:31:36;5.25;;;2.40;;
76953;SDS011;65893;51.698;-0.292;2023-05-14T17:34:02;5.75;;;2.38;;
76953;SDS011;65893;51.698;-0.292;2023-05-14T17:36:28;5.57;;;2.78;;
76953;SDS011;65893;51.698;-0.292;2023-05-14T17:38:57;5.82;;;2.42;;
76953;SDS011;65893;51.698;-0.292;2023-05-14T17:41:26;7.15;;;3.58;;
76953;SDS011;65893;51.698;-0.292;2023-05-14T17:44:10;6.05;;;3.05;;
76953;SDS011;65893;51.698;-0.292;2023-05-14T17:46:43;10.55;;;3.65;;
76953;SDS011;65893;51.698;-0.292;2023-05-14T17:49:19;7.57;;;2.88;;
76953;SDS011;65893;51.698;-0.292;2023-05-14T17:54:34;6.18;;;2.67;;
76953;SDS011;65893;51.698;-0.292;2023-05-14T18:39:33;9.38;;;4.10;;
76953;SDS011;65893;51.698;-0.292;2023-05-14T18:42:00;9.65;;;4.68;;
76953;SDS011;65893;51.698;-0.292;2023-05-14T18:44:30;10.32;;;4.57;;
76953;SDS011;65893;51.698;-0.292;2023-05-14T18:52:30;9.95;;;4.47;;
76953;SDS011;65893;51.698;-0.292;2023-05-14T18:54:59;8.07;;;3.80;;
76953;SDS011;65893;51.698;-0.292;2023-05-14T18:57:46;11.45;;;4.50;;
76953;SDS011;65893;51.698;-0.292;2023-05-14T19:00:18;8.90;;;4.72;;
76953;SDS011;65893;51.698;-0.292;2023-05-14T19:02:47;11.13;;;4.95;;
76953;SDS011;65893;51.698;-0.292;2023-05-14T19:05:17;9.82;;;3.95;;
76953;SDS011;65893;51.698;-0.292;2023-05-14T19:11:13;8.35;;;4.47;;
76953;SDS011;65893;51.698;-0.292;2023-05-14T19:19:39;8.90;;;4.43;;
76953;SDS011;65893;51.698;-0.292;2023-05-14T19:22:05;6.88;;;3.65;;
76953;SDS011;65893;51.698;-0.292;2023-05-14T19:29:53;8.35;;;3.50;;
76953;SDS011;65893;51.698;-0.292;2023-05-14T19:35:25;8.02;;;3.67;;
76953;SDS011;65893;51.698;-0.292;2023-05-14T19:37:54;8.50;;;3.35;;
76953;SDS011;65893;51.698;-0.292;2023-05-14T19:42:47;9.32;;;3.58;;
76953;SDS011;65893;51.698;-0.292;2023-05-14T19:45:14;6.63;;;3.47;;
76953;SDS011;65893;51.698;-0.292;2023-05-14T20:08:54;5.70;;;2.55;;
76953;SDS011;65893;51.698;-0.292;2023-05-14T20:17:07;8.13;;;2.65;;
76953;SDS011;65893;51.698;-0.292;2023-05-14T20:35:39;7.30;;;2.65;;
76953;SDS011;65893;51.698;-0.292;2023-05-14T21:02:25;7.20;;;2.63;;
76953;SDS011;65893;51.698;-0.292;2023-05-14T21:05:19;5.93;;;2.47;;
76953;SDS011;65893;51.698;-0.292;2023-05-14T21:07:46;8.45;;;2.85;;
76953;SDS011;65893;51.698;-0.292;2023-05-14T21:10:13;7.93;;;2.22;;
76953;SDS011;65893;51.698;-0.292;2023-05-14T21:12:39;7.45;;;2.22;;
76953;SDS011;65893;51.698;-0.292;2023-05-14T21:15:07;6.82;;;2.13;;
76953;SDS011;65893;51.698;-0.292;2023-05-14T21:17:35;9.20;;;2.72;;
76953;SDS011;65893;51.698;-0.292;2023-05-14T21:20:01;5.75;;;2.40;;
76953;SDS011;65893;51.698;-0.292;2023-05-14T21:22:27;8.95;;;2.38;;
76953;SDS011;65893;51.698;-0.292;2023-05-14T21:24:53;5.55;;;2.25;;
76953;SDS011;65893;51.698;-0.292;2023-05-14T21:27:20;9.52;;;2.33;;
76953;SDS011;65893;51.698;-0.292;2023-05-14T21:29:46;7.70;;;2.30;;
76953;SDS011;65893;51.698;-0.292;2023-05-14T21:32:12;7.35;;;2.20;;
76953;SDS011;65893;51.698;-0.292;2023-05-14T21:34:39;4.90;;;2.13;;
76953;SDS011;65893;51.698;-0.292;2023-05-14T21:37:06;5.85;;;2.47;;
76953;SDS011;65893;51.698;-0.292;2023-05-14T21:39:33;12.18;;;2.38;;
76953;SDS011;65893;51.698;-0.292;2023-05-14T21:41:59;6.70;;;2.22;;
76953;SDS011;65893;51.698;-0.292;2023-05-14T21:44:25;5.82;;;2.22;;
76953;SDS011;65893;51.698;-0.292;2023-05-14T21:46:51;6.63;;;2.38;;
76953;SDS011;65893;51.698;-0.292;2023-05-14T21:49:17;6.55;;;2.55;;
76953;SDS011;65893;51.698;-0.292;2023-05-14T21:51:44;7.45;;;2.53;;
76953;SDS011;65893;51.698;-0.292;2023-05-14T21:54:10;6.93;;;2.35;;
76953;SDS011;65893;51.698;-0.292;2023-05-14T21:56:38;6.03;;;2.47;;
76953;SDS011;65893;51.698;-0.292;2023-05-14T21:59:04;5.75;;;2.58;;
76953;SDS011;65893;51.698;-0.292;2023-05-14T22:01:30;8.18;;;3.53;;
76953;SDS011;65893;51.698;-0.292;2023-05-14T22:03:56;6.50;;;2.67;;
76953;SDS011;65893;51.698;-0.292;2023-05-14T22:06:22;6.65;;;2.58;;
76953;SDS011;65893;51.698;-0.292;2023-05-14T22:08:48;9.57;;;3.05;;
76953;SDS011;65893;51.698;-0.292;2023-05-14T22:11:15;5.43;;;2.40;;
76953;SDS011;65893;51.698;-0.292;2023-05-14T22:13:42;5.93;;;2.50;;
76953;SDS011;65893;51.698;-0.292;2023-05-14T22:16:08;6.18;;;2.20;;
76953;SDS011;65893;51.698;-0.292;2023-05-14T22:18:35;6.28;;;2.50;;
76953;SDS011;65893;51.698;-0.292;2023-05-14T22:21:02;9.60;;;2.45;;
76953;SDS011;65893;51.698;-0.292;2023-05-14T22:23:29;8.60;;;2.83;;
76953;SDS011;65893;51.698;-0.292;2023-05-14T22:25:56;10.35;;;2.75;;
76953;SDS011;65893;51.698;-0.292;2023-05-14T22:28:22;5.53;;;2.63;;
76953;SDS011;65893;51.698;-0.292;2023-05-14T22:30:48;6.78;;;2.70;;
76953;SDS011;65893;51.698;-0.292;2023-05-14T22:33:14;6.75;;;2.80;;
76953;SDS011;65893;51.698;-0.292;2023-05-14T22:35:40;7.80;;;3.35;;
76953;SDS011;65893;51.698;-0.292;2023-05-14T22:38:06;6.53;;;3.20;;
76953;SDS011;65893;51.698;-0.292;2023-05-14T22:40:32;7.75;;;3.28;;
76953;SDS011;65893;51.698;-0.292;2023-05-14T22:42:59;6.03;;;2.78;;
76953;SDS011;65893;51.698;-0.292;2023-05-14T22:45:30;6.13;;;2.97;;
76953;SDS011;65893;51.698;-0.292;2023-05-14T22:47:59;7.68;;;4.05;;
76953;SDS011;65893;51.698;-0.292;2023-05-14T22:50:25;7.35;;;2.75;;
76953;SDS011;65893;51.698;-0.292;2023-05-14T22:52:54;7.10;;;2.65;;
76953;SDS011;65893;51.698;-0.292;2023-05-14T22:55:20;8.15;;;2.90;;
76953;SDS011;65893;51.698;-0.292;2023-05-14T22:57:46;8.15;;;2.72;;
76953;SDS011;65893;51.698;-0.292;2023-05-14T23:00:13;7.60;;;2.95;;
76953;SDS011;65893;51.698;-0.292;2023-05-14T23:02:39;9.70;;;2.92;;
76953;SDS011;65893;51.698;-0.292;2023-05-14T23:05:06;7.72;;;3.38;;
76953;SDS011;65893;51.698;-0.292;2023-05-14T23:07:32;9.38;;;2.70;;
76953;SDS011;65893;51.698;-0.292;2023-05-14T23:09:59;6.63;;;2.70;;
76953;SDS011;65893;51.698;-0.292;2023-05-14T23:12:30;6.35;;;2.63;;
76953;SDS011;65893;51.698;-0.292;2023-05-14T23:14:57;8.68;;;2.95;;
76953;SDS011;65893;51.698;-0.292;2023-05-14T23:17:24;8.50;;;3.03;;
76953;SDS011;65893;51.698;-0.292;2023-05-14T23:19:50;6.68;;;2.83;;
76953;SDS011;65893;51.698;-0.292;2023-05-14T23:22:16;6.50;;;2.35;;
76953;SDS011;65893;51.698;-0.292;2023-05-14T23:24:43;9.75;;;3.58;;
76953;SDS011;65893;51.698;-0.292;2023-05-14T23:27:09;10.40;;;2.90;;
76953;SDS011;65893;51.698;-0.292;2023-05-14T23:29:36;7.20;;;2.50;;
76953;SDS011;65893;51.698;-0.292;2023-05-14T23:32:02;6.40;;;2.20;;
76953;SDS011;65893;51.698;-0.292;2023-05-14T23:34:28;9.50;;;3.13;;
76953;SDS011;65893;51.698;-0.292;2023-05-14T23:36:54;6.65;;;3.05;;
76953;SDS011;65893;51.698;-0.292;2023-05-14T23:39:21;7.38;;;2.88;;
76953;SDS011;65893;51.698;-0.292;2023-05-14T23:41:47;7.72;;;2.90;;
76953;SDS011;65893;51.698;-0.292;2023-05-14T23:44:14;8.60;;;2.65;;
76953;SDS011;65893;51.698;-0.292;2023-05-14T23:46:40;4.80;;;1.67;;
76953;SDS011;65893;51.698;-0.292;2023-05-14T23:49:06;6.55;;;2.42;;
76953;SDS011;65893;51.698;-0.292;2023-05-14T23:51:32;8.13;;;2.50;;
76953;SDS011;65893;51.698;-0.292;2023-05-14T23:53:58;5.70;;;1.75;;
76953;SDS011;65893;51.698;-0.292;2023-05-14T23:56:24;5.53;;;1.90;;
76953;SDS011;65893;51.698;-0.292;2023-05-14T23:58:54;5.38;;;1.75;;
